createdAt,value
2022-12-18T00:02:25.568Z,41.08
2022-12-18T00:04:52.144Z,42.10
2022-12-18T00:07:18.609Z,40.50
2022-12-18T00:09:45.155Z,42.90
2022-12-18T00:14:45.502Z,39.03
2022-12-18T00:17:12.254Z,36.85
2022-12-18T00:19:38.726Z,39.67
2022-12-18T00:22:05.982Z,41.33
2022-12-18T00:24:34.767Z,41.67
2022-12-18T00:27:01.257Z,40.55
2022-12-18T00:29:27.773Z,40.30
2022-12-18T00:31:54.424Z,41.65
2022-12-18T00:34:20.916Z,41.42
2022-12-18T00:36:49.013Z,37.78
2022-12-18T00:39:15.516Z,37.20
2022-12-18T00:42:00.692Z,40.80
2022-12-18T00:44:27.284Z,39.08
2022-12-18T00:46:56.602Z,45.20
2022-12-18T00:49:23.070Z,40.92
2022-12-18T00:51:49.543Z,37.72
2022-12-18T00:54:16.802Z,39.85
2022-12-18T00:56:49.413Z,44.22
2022-12-18T00:59:18.586Z,46.03
2022-12-18T01:01:45.836Z,42.45
2022-12-18T01:04:12.620Z,40.85
2022-12-18T01:06:39.127Z,43.20
2022-12-18T01:09:06.782Z,39.30
2022-12-18T01:11:33.313Z,37.85
2022-12-18T01:14:02.908Z,39.03
2022-12-18T01:16:29.511Z,38.78
2022-12-18T01:18:56.323Z,38.97
2022-12-18T01:21:24.531Z,40.35
2022-12-18T01:23:58.482Z,42.92
2022-12-18T01:26:26.079Z,39.13
2022-12-18T01:28:52.992Z,43.38
2022-12-18T01:31:22.065Z,40.45
2022-12-18T01:33:52.720Z,42.33
2022-12-18T01:36:22.694Z,38.97
2022-12-18T01:38:50.201Z,41.80
2022-12-18T01:41:20.124Z,41.05
2022-12-18T01:43:58.454Z,40.60
2022-12-18T01:46:28.655Z,39.97
2022-12-18T01:49:00.586Z,41.70
2022-12-18T01:51:30.638Z,38.63
2022-12-18T01:53:58.437Z,40.90
2022-12-18T01:56:25.124Z,41.83
2022-12-18T01:59:12.738Z,41.65
2022-12-18T02:01:39.649Z,39.80
2022-12-18T02:04:26.652Z,41.35
2022-12-18T02:07:14.269Z,38.38
2022-12-18T02:10:04.360Z,39.00
2022-12-18T02:12:57.438Z,41.38
2022-12-18T02:15:40.162Z,43.85
2022-12-18T02:18:14.843Z,42.70
2022-12-18T02:21:01.979Z,41.50
2022-12-18T02:24:10.654Z,42.63
2022-12-18T02:26:43.567Z,46.72
2022-12-18T02:29:15.198Z,46.53
2022-12-18T02:31:51.321Z,44.00
2022-12-18T02:34:20.559Z,43.47
2022-12-18T02:36:49.490Z,46.75
2022-12-18T02:39:16.892Z,45.03
2022-12-18T02:41:43.624Z,45.83
2022-12-18T02:44:14.408Z,44.40
2022-12-18T02:46:45.250Z,44.08
2022-12-18T02:49:31.371Z,44.38
2022-12-18T02:52:19.310Z,39.10
2022-12-18T02:55:13.216Z,42.88
2022-12-18T02:58:00.232Z,42.55
2022-12-18T03:00:38.068Z,42.85
2022-12-18T03:03:12.826Z,35.72
2022-12-18T03:05:51.204Z,36.38
2022-12-18T03:08:28.628Z,36.75
2022-12-18T03:11:02.319Z,36.83
2022-12-18T03:13:40.966Z,35.83
2022-12-18T03:16:12.451Z,32.42
2022-12-18T03:21:12.661Z,28.23
2022-12-18T03:23:48.231Z,30.27
2022-12-18T03:26:19.050Z,29.75
2022-12-18T03:28:57.377Z,29.17
2022-12-18T03:31:27.281Z,29.70
2022-12-18T03:33:58.522Z,29.77
2022-12-18T03:36:25.773Z,31.65
2022-12-18T03:38:52.633Z,28.92
2022-12-18T03:41:35.476Z,27.35
2022-12-18T03:44:17.334Z,27.20
2022-12-18T03:47:02.755Z,27.80
2022-12-18T03:49:41.094Z,27.40
2022-12-18T03:52:14.030Z,26.65
2022-12-18T03:54:43.865Z,28.52
2022-12-18T03:57:23.924Z,29.55
2022-12-18T03:59:55.501Z,30.80
2022-12-18T04:02:24.590Z,27.35
2022-12-18T04:04:57.083Z,29.10
2022-12-18T04:07:25.180Z,28.83
2022-12-18T04:09:54.724Z,28.38
2022-12-18T04:12:21.388Z,26.40
2022-12-18T04:14:48.023Z,25.98
2022-12-18T04:17:14.660Z,26.73
2022-12-18T04:19:41.297Z,24.13
2022-12-18T04:22:10.193Z,24.35
2022-12-18T04:24:37.275Z,23.38
2022-12-18T04:27:05.000Z,22.65
2022-12-18T04:29:35.931Z,26.88
2022-12-18T04:32:02.711Z,25.23
2022-12-18T04:34:29.542Z,24.48
2022-12-18T04:36:56.101Z,23.63
2022-12-18T04:39:22.992Z,25.40
2022-12-18T04:41:49.450Z,24.77
2022-12-18T04:44:16.010Z,25.63
2022-12-18T04:46:43.315Z,25.50
2022-12-18T04:49:11.392Z,24.88
2022-12-18T04:51:38.487Z,24.17
2022-12-18T04:54:05.106Z,24.10
2022-12-18T04:56:32.259Z,22.60
2022-12-18T04:58:58.860Z,24.05
2022-12-18T05:01:31.006Z,21.33
2022-12-18T05:04:01.130Z,23.20
2022-12-18T05:06:27.839Z,23.98
2022-12-18T05:08:54.551Z,24.02
2022-12-18T05:11:21.039Z,23.85
2022-12-18T05:13:47.602Z,23.88
2022-12-18T05:16:15.501Z,22.77
2022-12-18T05:18:42.537Z,23.55
2022-12-18T05:21:09.329Z,22.40
2022-12-18T05:23:37.219Z,22.92
2022-12-18T05:26:06.907Z,21.05
2022-12-18T05:28:35.518Z,21.25
2022-12-18T05:31:04.554Z,21.63
2022-12-18T05:33:34.806Z,21.33
2022-12-18T05:36:08.853Z,20.63
2022-12-18T05:38:38.034Z,20.40
2022-12-18T05:41:05.431Z,22.50
2022-12-18T05:43:34.331Z,21.05
2022-12-18T05:46:05.798Z,19.63
2022-12-18T05:48:32.602Z,21.45
2022-12-18T05:51:06.205Z,20.88
2022-12-18T05:53:35.518Z,18.77
2022-12-18T05:56:04.505Z,18.98
2022-12-18T05:58:32.338Z,19.45
2022-12-18T06:01:06.662Z,18.38
2022-12-18T06:03:34.169Z,20.42
2022-12-18T06:06:01.007Z,22.90
2022-12-18T06:08:27.818Z,19.85
2022-12-18T06:10:57.576Z,19.23
2022-12-18T06:13:24.415Z,18.23
2022-12-18T06:15:51.067Z,21.40
2022-12-18T06:18:17.634Z,20.25
2022-12-18T06:20:55.772Z,19.80
2022-12-18T06:23:22.445Z,19.48
2022-12-18T06:25:49.128Z,19.20
2022-12-18T06:28:16.000Z,19.45
2022-12-18T06:30:47.301Z,19.52
2022-12-18T06:33:13.965Z,20.40
2022-12-18T06:35:40.714Z,18.30
2022-12-18T06:38:07.316Z,18.92
2022-12-18T06:40:34.669Z,18.05
2022-12-18T06:43:01.297Z,19.05
2022-12-18T06:45:28.075Z,19.95
2022-12-18T06:47:55.074Z,20.45
2022-12-18T06:50:21.627Z,19.70
2022-12-18T06:52:48.289Z,21.63
2022-12-18T06:55:15.122Z,19.02
2022-12-18T06:57:41.781Z,19.02
2022-12-18T07:00:08.903Z,20.23
2022-12-18T07:02:35.792Z,19.45
2022-12-18T07:05:07.499Z,20.10
2022-12-18T07:07:37.039Z,18.33
2022-12-18T07:10:03.980Z,20.52
2022-12-18T07:12:30.691Z,20.48
2022-12-18T07:14:57.200Z,19.05
2022-12-18T07:17:23.779Z,19.48
2022-12-18T07:19:50.448Z,18.63
2022-12-18T07:22:17.446Z,20.20
2022-12-18T07:24:44.159Z,19.83
2022-12-18T07:27:10.869Z,20.50
2022-12-18T07:29:37.549Z,18.98
2022-12-18T07:32:10.429Z,20.42
2022-12-18T07:34:37.392Z,18.45
2022-12-18T07:37:04.134Z,20.83
2022-12-18T07:39:30.703Z,20.30
2022-12-18T07:42:15.813Z,19.50
2022-12-18T07:44:42.473Z,20.83
2022-12-18T07:47:11.997Z,18.40
2022-12-18T07:49:41.145Z,17.42
2022-12-18T07:52:07.856Z,17.58
2022-12-18T07:54:34.756Z,19.73
2022-12-18T07:57:01.456Z,17.70
2022-12-18T07:59:28.183Z,17.50
2022-12-18T08:01:54.994Z,18.00
2022-12-18T08:04:21.817Z,17.20
2022-12-18T08:06:48.581Z,19.17
2022-12-18T08:09:18.002Z,19.73
2022-12-18T08:11:44.936Z,17.33
2022-12-18T08:14:11.627Z,20.20
2022-12-18T08:16:38.531Z,19.60
2022-12-18T08:19:05.351Z,17.85
2022-12-18T08:21:32.667Z,17.98
2022-12-18T08:24:01.093Z,17.25
2022-12-18T08:26:30.955Z,18.05
2022-12-18T08:28:59.462Z,20.08
2022-12-18T08:31:28.191Z,17.15
2022-12-18T08:33:55.327Z,18.25
2022-12-18T08:36:23.093Z,18.08
2022-12-18T08:38:51.237Z,20.30
2022-12-18T08:41:19.281Z,19.42
2022-12-18T08:44:04.967Z,17.83
2022-12-18T08:46:41.230Z,17.65
2022-12-18T08:49:12.372Z,16.45
2022-12-18T08:51:41.147Z,17.77
2022-12-18T08:54:08.035Z,18.77
2022-12-18T08:56:35.098Z,19.15
2022-12-18T08:59:02.093Z,18.05
2022-12-18T09:01:29.340Z,18.15
2022-12-18T09:03:56.298Z,19.20
2022-12-18T09:06:23.893Z,20.15
2022-12-18T09:08:50.832Z,18.20
2022-12-18T09:11:26.920Z,19.23
2022-12-18T09:13:55.129Z,19.17
2022-12-18T09:16:27.386Z,19.05
2022-12-18T09:19:02.407Z,22.85
2022-12-18T09:23:57.987Z,16.90
2022-12-18T09:26:26.401Z,19.00
2022-12-18T09:28:53.004Z,20.02
2022-12-18T09:31:22.605Z,21.42
2022-12-18T09:33:49.365Z,17.83
2022-12-18T09:36:18.598Z,19.98
2022-12-18T09:38:45.412Z,19.27
2022-12-18T09:41:40.102Z,20.38
2022-12-18T09:44:12.825Z,19.27
2022-12-18T09:46:45.079Z,18.02
2022-12-18T09:49:20.143Z,18.80
2022-12-18T09:51:50.661Z,20.52
2022-12-18T09:54:26.910Z,18.58
2022-12-18T09:56:54.651Z,18.77
2022-12-18T09:59:34.102Z,18.83
2022-12-18T10:02:03.951Z,17.52
2022-12-18T10:04:33.081Z,18.92
2022-12-18T10:07:24.504Z,17.15
2022-12-18T10:10:14.148Z,18.70
2022-12-18T10:13:04.720Z,21.70
2022-12-18T10:15:48.387Z,20.33
2022-12-18T10:18:58.664Z,19.85
2022-12-18T10:21:49.078Z,20.95
2022-12-18T10:24:49.318Z,18.33
2022-12-18T10:27:23.251Z,18.33
2022-12-18T10:29:50.933Z,17.73
2022-12-18T10:32:24.080Z,17.73
2022-12-18T10:35:01.102Z,19.80
2022-12-18T10:37:51.219Z,17.27
2022-12-18T10:40:31.866Z,18.42
2022-12-18T10:43:15.980Z,18.20
2022-12-18T10:46:04.395Z,15.82
2022-12-18T10:48:40.528Z,18.83
2022-12-18T10:51:40.607Z,18.73
2022-12-18T10:54:21.240Z,18.00
2022-12-18T10:57:23.060Z,18.38
2022-12-18T11:00:00.682Z,20.08
2022-12-18T11:02:39.212Z,18.35
2022-12-18T11:05:30.080Z,17.95
2022-12-18T11:08:00.857Z,17.30
2022-12-18T11:10:45.951Z,17.60
2022-12-18T11:13:36.529Z,17.67
2022-12-18T11:16:26.221Z,18.10
2022-12-18T11:19:08.391Z,17.27
2022-12-18T11:21:41.627Z,16.30
2022-12-18T11:24:21.772Z,15.27
2022-12-18T11:26:59.931Z,18.15
2022-12-18T11:29:43.245Z,16.75
2022-12-18T11:32:19.286Z,16.48
2022-12-18T11:34:52.524Z,17.33
2022-12-18T11:37:23.109Z,17.40
2022-12-18T11:40:01.678Z,15.68
2022-12-18T11:42:47.152Z,16.13
2022-12-18T11:45:14.072Z,18.63
2022-12-18T11:47:50.090Z,19.27
2022-12-18T11:50:34.840Z,18.45
2022-12-18T11:53:06.435Z,17.98
2022-12-18T11:55:57.844Z,17.08
2022-12-18T11:58:57.313Z,16.08
2022-12-18T12:01:44.498Z,15.13
2022-12-18T12:04:33.788Z,16.38
2022-12-18T12:07:17.865Z,15.70
2022-12-18T12:09:53.942Z,14.70
2022-12-18T12:12:56.769Z,15.25
2022-12-18T12:15:47.405Z,16.15
2022-12-18T12:19:04.302Z,17.38
2022-12-18T12:22:03.504Z,18.35
2022-12-18T12:27:48.088Z,15.63
2022-12-18T12:30:54.877Z,18.88
2022-12-18T12:33:51.686Z,16.33
2022-12-18T12:36:50.595Z,16.48
2022-12-18T12:40:15.287Z,15.77
2022-12-18T12:47:15.482Z,16.98
2022-12-18T12:49:52.127Z,16.77
2022-12-18T12:52:50.026Z,18.65
2022-12-18T12:55:35.589Z,18.10
2022-12-18T12:58:29.337Z,20.15
2022-12-18T13:01:29.868Z,19.67
2022-12-18T13:04:28.414Z,18.58
2022-12-18T13:07:11.698Z,18.30
2022-12-18T13:10:19.212Z,16.73
2022-12-18T13:13:09.171Z,17.60
2022-12-18T13:16:09.378Z,19.65
2022-12-18T13:18:36.475Z,18.35
2022-12-18T13:21:18.563Z,18.58
2022-12-18T13:23:46.138Z,16.75
2022-12-18T13:26:17.102Z,18.23
2022-12-18T13:28:49.771Z,16.02
2022-12-18T13:31:42.355Z,16.90
2022-12-18T13:34:33.509Z,17.70
2022-12-18T13:37:39.698Z,14.90
2022-12-18T13:40:48.892Z,15.40
2022-12-18T13:43:28.456Z,14.95
2022-12-18T13:46:32.939Z,15.02
2022-12-18T13:49:15.033Z,15.75
2022-12-18T13:51:45.077Z,16.35
2022-12-18T13:54:25.318Z,15.65
2022-12-18T13:56:52.201Z,17.30
2022-12-18T13:59:22.984Z,15.77
2022-12-18T14:02:02.909Z,15.15
2022-12-18T14:04:33.894Z,16.55
2022-12-18T14:07:25.112Z,14.95
2022-12-18T14:10:06.432Z,16.65
2022-12-18T14:12:57.893Z,17.58
2022-12-18T14:15:27.991Z,16.23
2022-12-18T14:18:23.024Z,14.68
2022-12-18T14:20:53.338Z,14.35
2022-12-18T14:23:43.707Z,14.05
2022-12-18T14:26:24.761Z,14.27
2022-12-18T14:28:52.009Z,15.07
2022-12-18T14:31:26.502Z,15.98
2022-12-18T14:33:56.906Z,14.00
2022-12-18T14:36:27.358Z,15.65
2022-12-18T14:38:58.524Z,15.68
2022-12-18T14:41:26.557Z,15.93
2022-12-18T14:43:55.489Z,15.30
2022-12-18T14:46:28.418Z,15.45
2022-12-18T14:48:57.511Z,15.35
2022-12-18T14:51:29.535Z,15.73
2022-12-18T14:54:08.958Z,16.48
2022-12-18T14:56:37.873Z,16.23
2022-12-18T14:59:23.825Z,15.07
2022-12-18T15:02:14.709Z,16.80
2022-12-18T15:04:44.720Z,16.02
2022-12-18T15:07:23.216Z,15.57
2022-12-18T15:10:13.772Z,15.43
2022-12-18T15:13:00.667Z,20.33
2022-12-18T15:15:43.448Z,18.33
2022-12-18T15:18:13.050Z,18.25
2022-12-18T15:20:49.246Z,16.80
2022-12-18T15:23:25.551Z,17.15
2022-12-18T15:26:07.345Z,17.65
2022-12-18T15:28:44.188Z,18.17
2022-12-18T15:31:12.060Z,17.83
2022-12-18T15:33:45.163Z,18.02
2022-12-18T15:36:17.592Z,18.08
2022-12-18T15:38:49.595Z,18.02
2022-12-18T15:41:22.954Z,20.13
2022-12-18T15:43:53.317Z,20.00
2022-12-18T15:46:22.416Z,18.85
2022-12-18T15:49:01.728Z,18.85
2022-12-18T15:51:39.406Z,17.83
2022-12-18T15:54:12.268Z,16.90
2022-12-18T15:56:57.558Z,16.10
2022-12-18T15:59:25.493Z,16.88
2022-12-18T16:01:55.682Z,17.05
2022-12-18T16:04:23.366Z,17.35
2022-12-18T16:07:14.943Z,16.67
2022-12-18T16:09:39.906Z,20.08
2022-12-18T16:12:21.870Z,19.73
2022-12-18T16:14:51.222Z,18.50
2022-12-18T16:17:18.453Z,24.15
2022-12-18T16:19:45.677Z,24.30
2022-12-18T16:22:30.890Z,26.95
2022-12-18T16:25:00.693Z,21.45
2022-12-18T16:27:27.302Z,20.00
2022-12-18T16:29:54.070Z,19.85
2022-12-18T16:32:23.342Z,19.73
2022-12-18T16:34:50.452Z,19.17
2022-12-18T16:37:17.458Z,19.52
2022-12-18T16:39:44.272Z,18.05
2022-12-18T16:42:17.584Z,18.95
2022-12-18T16:44:45.659Z,20.42
2022-12-18T16:47:14.939Z,17.25
2022-12-18T16:49:42.483Z,19.33
2022-12-18T16:52:09.636Z,22.98
2022-12-18T16:54:36.948Z,20.30
2022-12-18T16:57:05.479Z,22.75
2022-12-18T16:59:35.575Z,27.42
2022-12-18T17:02:23.765Z,22.73
2022-12-18T17:04:57.335Z,28.50
2022-12-18T17:07:25.696Z,23.45
2022-12-18T17:09:54.177Z,23.65
2022-12-18T17:12:21.774Z,25.38
2022-12-18T17:14:51.473Z,27.15
2022-12-18T17:17:21.219Z,21.25
2022-12-18T17:22:17.015Z,20.73
2022-12-18T17:24:43.826Z,24.05
2022-12-18T17:27:10.816Z,25.10
2022-12-18T17:29:41.153Z,23.17
2022-12-18T17:32:12.501Z,20.60
2022-12-18T17:34:39.402Z,24.75
2022-12-18T17:37:10.331Z,30.83
2022-12-18T17:42:08.385Z,23.58
2022-12-18T17:44:40.208Z,27.58
2022-12-18T17:47:07.877Z,27.60
2022-12-18T17:49:34.776Z,23.75
2022-12-18T17:52:01.534Z,24.52
2022-12-18T17:54:28.631Z,25.58
2022-12-18T17:56:55.518Z,20.98
2022-12-18T17:59:22.761Z,20.63
2022-12-18T18:01:49.762Z,20.63
2022-12-18T18:04:19.353Z,22.55
2022-12-18T18:06:46.110Z,22.40
2022-12-18T18:09:16.097Z,18.85
2022-12-18T18:12:05.486Z,21.48
2022-12-18T18:14:33.145Z,20.55
2022-12-18T18:17:04.273Z,22.10
2022-12-18T18:21:58.298Z,20.20
2022-12-18T18:24:25.949Z,20.35
2022-12-18T18:26:52.739Z,20.48
2022-12-18T18:29:23.064Z,20.50
2022-12-18T18:31:50.646Z,20.55
2022-12-18T18:34:23.136Z,21.77
2022-12-18T18:36:50.272Z,19.35
2022-12-18T18:39:18.082Z,21.92
2022-12-18T18:41:48.344Z,21.63
2022-12-18T18:44:16.423Z,21.80
2022-12-18T18:46:46.550Z,22.90
2022-12-18T18:49:17.075Z,20.85
2022-12-18T18:51:49.173Z,23.52
2022-12-18T18:54:15.890Z,24.13
2022-12-18T18:57:18.884Z,20.80
2022-12-18T18:59:31.562Z,20.48
2022-12-18T19:02:00.146Z,21.88
2022-12-18T19:04:32.238Z,23.02
2022-12-18T19:06:59.296Z,21.85
2022-12-18T19:09:26.410Z,22.35
2022-12-18T19:12:12.110Z,21.58
2022-12-18T19:14:39.140Z,23.30
2022-12-18T19:17:07.555Z,23.98
2022-12-18T19:19:39.749Z,21.90
2022-12-18T19:22:07.113Z,22.00
2022-12-18T19:24:33.989Z,24.52
2022-12-18T19:27:00.770Z,22.58
2022-12-18T19:29:27.810Z,21.58
2022-12-18T19:31:54.653Z,19.17
2022-12-18T19:34:21.390Z,22.42
2022-12-18T19:36:48.068Z,22.50
2022-12-18T19:39:17.872Z,22.08
2022-12-18T19:44:15.589Z,20.52
2022-12-18T19:46:44.757Z,20.95
2022-12-18T19:49:11.947Z,22.30
2022-12-18T19:51:44.098Z,20.05
2022-12-18T19:54:16.189Z,21.15
2022-12-18T19:56:44.262Z,20.60
2022-12-18T19:59:10.943Z,20.52
2022-12-18T20:01:43.220Z,21.05
2022-12-18T20:04:10.421Z,21.92
2022-12-18T20:06:47.947Z,20.13
2022-12-18T20:09:15.010Z,19.85
2022-12-18T20:11:42.542Z,19.45
2022-12-18T20:14:13.023Z,19.77
2022-12-18T20:16:40.481Z,18.70
2022-12-18T20:19:07.929Z,19.45
2022-12-18T20:21:35.572Z,19.02
2022-12-18T20:24:02.470Z,20.27
2022-12-18T20:26:29.423Z,18.15
2022-12-18T20:28:56.664Z,20.35
2022-12-18T20:31:24.629Z,17.98
2022-12-18T20:33:52.137Z,17.95
2022-12-18T20:36:24.632Z,18.23
2022-12-18T20:38:54.731Z,18.25
2022-12-18T20:41:24.911Z,18.70
2022-12-18T20:43:54.412Z,18.83
2022-12-18T20:46:24.568Z,17.90
2022-12-18T20:48:51.851Z,20.58
2022-12-18T20:51:21.685Z,17.45
2022-12-18T20:53:48.741Z,18.55
2022-12-18T20:56:21.549Z,18.65
2022-12-18T20:58:49.679Z,17.10
2022-12-18T21:01:21.348Z,18.45
2022-12-18T21:03:51.415Z,16.65
2022-12-18T21:06:20.710Z,17.70
2022-12-18T21:08:48.362Z,19.20
2022-12-18T21:11:35.543Z,18.02
2022-12-18T21:14:05.276Z,16.77
2022-12-18T21:16:32.399Z,18.92
2022-12-18T21:18:59.594Z,18.52
2022-12-18T21:21:27.198Z,18.15
2022-12-18T21:23:56.939Z,19.60
2022-12-18T21:26:26.374Z,18.05
2022-12-18T21:28:58.134Z,19.52
2022-12-18T21:31:34.574Z,17.15
2022-12-18T21:34:07.576Z,18.30
2022-12-18T21:36:35.187Z,18.80
2022-12-18T21:39:04.612Z,18.88
2022-12-18T21:41:52.328Z,19.02
2022-12-18T21:44:22.339Z,19.25
2022-12-18T21:46:58.373Z,19.52
2022-12-18T21:49:33.687Z,18.60
2022-12-18T21:52:01.159Z,18.53
2022-12-18T21:54:29.022Z,18.40
2022-12-18T21:57:07.068Z,17.60
2022-12-18T21:59:41.411Z,17.85
2022-12-18T22:02:13.000Z,17.33
2022-12-18T22:04:42.560Z,19.25
2022-12-18T22:07:09.755Z,20.88
2022-12-18T22:09:38.275Z,18.17
2022-12-18T22:12:05.995Z,19.65
2022-12-18T22:14:32.789Z,19.63
2022-12-18T22:16:59.553Z,18.48
2022-12-18T22:19:26.949Z,19.45
2022-12-18T22:21:54.450Z,18.85
2022-12-18T22:24:26.541Z,19.25
2022-12-18T22:27:01.750Z,18.38
2022-12-18T22:29:48.047Z,18.35
2022-12-18T22:32:23.776Z,19.05
2022-12-18T22:35:07.279Z,18.45
2022-12-18T22:37:37.358Z,18.42
2022-12-18T22:40:06.016Z,19.52
2022-12-18T22:42:34.370Z,19.67
2022-12-18T22:45:01.090Z,18.92
2022-12-18T22:47:30.821Z,18.83
2022-12-18T22:49:58.313Z,18.15
2022-12-18T22:52:25.609Z,19.75
2022-12-18T22:54:54.081Z,20.20
2022-12-18T22:57:22.430Z,19.83
2022-12-18T22:59:50.459Z,19.63
2022-12-18T23:02:19.046Z,19.13
2022-12-18T23:04:47.726Z,18.35
2022-12-18T23:07:15.834Z,21.17
2022-12-18T23:09:42.957Z,20.90
2022-12-18T23:12:16.338Z,19.75
2022-12-18T23:14:43.420Z,19.65
2022-12-18T23:17:10.223Z,19.98
2022-12-18T23:19:44.024Z,20.33
2022-12-18T23:22:14.020Z,19.02
2022-12-18T23:24:40.881Z,21.65
2022-12-18T23:27:11.567Z,18.50
2022-12-18T23:29:41.928Z,21.20
2022-12-18T23:32:10.799Z,20.60
2022-12-18T23:34:39.489Z,20.65
2022-12-18T23:37:06.333Z,19.88
2022-12-18T23:39:32.977Z,22.30
2022-12-18T23:42:00.233Z,19.63
2022-12-18T23:44:27.420Z,20.08
2022-12-18T23:46:54.783Z,20.25
2022-12-18T23:49:21.604Z,20.85
2022-12-18T23:51:48.748Z,18.60
2022-12-18T23:54:16.140Z,19.63
2022-12-18T23:56:43.011Z,22.63
2022-12-18T23:59:09.834Z,20.17
